Observation data for Northfield on 03/05/2021      Previous  Date  Next       Current Mesonet Observations  Soil Data  Daily Summary Page  Observations in Plain Language
KNOR 050600Z 26006KT 11/M06 A2986 RMK A01 T01131058  RH  030%=      5-min Rain = 0
KNOR 050605Z 25006KT 11/M06 A2986 RMK A01 T01071059  RH  031%=      5-min Rain = 0
KNOR 050610Z 24006KT 11/M06 A2986 RMK A01 T01051059  RH  031%=      5-min Rain = 0
KNOR 050615Z 23006KT 11/M06 A2986 RMK A01 T01051059  RH  031%=      5-min Rain = 0
KNOR 050620Z 24006KT 10/M06 A2986 RMK A01 T01011059  RH  032%=      5-min Rain = 0
KNOR 050625Z 22006KT 10/M06 A2986 RMK A01 T00981059  RH  033%=      5-min Rain = 0
KNOR 050630Z 23006KT 10/M06 A2986 RMK A01 T00961058  RH  033%=      5-min Rain = 0
KNOR 050635Z 22006KT 09/M06 A2986 RMK A01 T00941058  RH  034%=      5-min Rain = 0
KNOR 050640Z 22007KT 09/M06 A2986 RMK A01 T00941056  RH  034%=      5-min Rain = 0
KNOR 050645Z 22006KT 10/M06 A2987 RMK A01 T00951055  RH  034%=      5-min Rain = 0
KNOR 050650Z 23006KT 10/M06 A2987 RMK A01 T00961055  RH  034%=      5-min Rain = 0
KNOR 050655Z 23006KT 10/M05 A2987 RMK A01 T00951054  RH  035%=      5-min Rain = 0
KNOR 050700Z 23006KT 10/M05 A2987 RMK A01 T00961053  RH  034%=      5-min Rain = 0
KNOR 050705Z 22007KT 09/M05 A2987 RMK A01 T00901054  RH  036%=      5-min Rain = 0
KNOR 050710Z 22007KT 09/M05 A2988 RMK A01 T00891053  RH  036%=      5-min Rain = 0
KNOR 050715Z 23006KT 10/M05 A2988 RMK A01 T00961051  RH  035%=      5-min Rain = 0
KNOR 050720Z 24006G11KT 10/M05 A2988 RMK A01 T00961051  RH  035%=      5-min Rain = 0
KNOR 050725Z 25005KT 10/M05 A2988 RMK A01 T00951052  RH  035%=      5-min Rain = 0
KNOR 050730Z 26005KT 10/M05 A2989 RMK A01 T00951051  RH  035%=      5-min Rain = 0
KNOR 050735Z 26006KT 09/M05 A2989 RMK A01 T00901050  RH  037%=      5-min Rain = 0
KNOR 050740Z 27007KT 09/M05 A2989 RMK A01 T00881047  RH  038%=      5-min Rain = 0
KNOR 050745Z 27007KT 09/M05 A2989 RMK A01 T00861046  RH  039%=      5-min Rain = 0
KNOR 050750Z 27007KT 09/M05 A2989 RMK A01 T00861046  RH  039%=      5-min Rain = 0
KNOR 050755Z 28008G13KT 09/M04 A2989 RMK A01 T00891042  RH  040%=      5-min Rain = 0
KNOR 050800Z 29009KT 09/M04 A2989 RMK A01 T00941036  RH  040%=      5-min Rain = 0
KNOR 050805Z 30012G18KT 11/M03 A2989 RMK A01 T01061026  RH  040%=      5-min Rain = 0
KNOR 050810Z 31011G17KT 12/M02 A2989 RMK A01 T01151022  RH  039%=      5-min Rain = 0
KNOR 050815Z 31011KT 12/M02 A2989 RMK A01 T01161021  RH  039%=      5-min Rain = 0
KNOR 050820Z 31012G18KT 12/M02 A2989 RMK A01 T01171018  RH  039%=      5-min Rain = 0
KNOR 050825Z 31012G17KT 12/M02 A2989 RMK A01 T01181016  RH  040%=      5-min Rain = 0
KNOR 050830Z 31012G17KT 12/M01 A2989 RMK A01 T01181014  RH  040%=      5-min Rain = 0
KNOR 050835Z 31012G17KT 12/M01 A2989 RMK A01 T01171013  RH  041%=      5-min Rain = 0
KNOR 050840Z 31012G18KT 12/M01 A299 RMK A01 T01161013  RH  041%=      5-min Rain = 0
KNOR 050845Z 31012G18KT 11/M01 A299 RMK A01 T01141012  RH  042%=      5-min Rain = 0
KNOR 050850Z 31013G19KT 12/M01 A299 RMK A01 T01161010  RH  042%=      5-min Rain = 0
KNOR 050855Z 32013KT 12/M01 A299 RMK A01 T01151010  RH  043%=      5-min Rain = 0
KNOR 050900Z 32012G20KT 11/M01 A2991 RMK A01 T01131009  RH  043%=      5-min Rain = 0
KNOR 050905Z 32010KT 11/M01 A2991 RMK A01 T01101009  RH  044%=      5-min Rain = 0
KNOR 050910Z 32009G14KT 11/M01 A2991 RMK A01 T01071009  RH  045%=      5-min Rain = 0
KNOR 050915Z 33010KT 11/M01 A2991 RMK A01 T01071008  RH  045%=      5-min Rain = 0
KNOR 050920Z 32009KT 10/M01 A2991 RMK A01 T01041009  RH  046%=      5-min Rain = 0
KNOR 050925Z 31010KT 10/M01 A2991 RMK A01 T01041008  RH  046%=      5-min Rain = 0
KNOR 050930Z 32009KT 10/M01 A2992 RMK A01 T01031008  RH  047%=      5-min Rain = 0
KNOR 050935Z 32008KT 10/M01 A2992 RMK A01 T01011008  RH  047%=      5-min Rain = 0
KNOR 050940Z 31007KT 10/M01 A2992 RMK A01 T00991008  RH  048%=      5-min Rain = 0
KNOR 050945Z 30006KT 09/M01 A2992 RMK A01 T00931009  RH  049%=      5-min Rain = 0
KNOR 050950Z 31006KT 09/M01 A2992 RMK A01 T00901009  RH  050%=      5-min Rain = 0
KNOR 050955Z 31007KT 09/M01 A2993 RMK A01 T00861010  RH  051%=      5-min Rain = 0
KNOR 051000Z 33007KT 09/M01 A2993 RMK A01 T00851009  RH  052%=      5-min Rain = 0
KNOR 051005Z 33009G15KT 09/M01 A2993 RMK A01 T00871007  RH  052%=      5-min Rain = 0
KNOR 051010Z 33010KT 09/M00 A2993 RMK A01 T00931004  RH  051%=      5-min Rain = 0
KNOR 051015Z 33011G16KT 09/M00 A2993 RMK A01 T00941003  RH  051%=      5-min Rain = 0
KNOR 051020Z 33010G15KT 09/M00 A2994 RMK A01 T00931002  RH  052%=      5-min Rain = 0
KNOR 051025Z 33011KT 09/00 A2994 RMK A01 T009200-0  RH  053%=      5-min Rain = 0
KNOR 051030Z 33010KT 09/00 A2994 RMK A01 T00920001  RH  054%=      5-min Rain = 0
KNOR 051035Z 33011G16KT 09/00 A2994 RMK A01 T00930003  RH  054%=      5-min Rain = 0
KNOR 051040Z 32010KT 09/00 A2994 RMK A01 T00920003  RH  054%=      5-min Rain = 0
KNOR 051045Z 32011KT 09/00 A2994 RMK A01 T00920004  RH  055%=      5-min Rain = 0
KNOR 051050Z 31010G15KT 09/01 A2994 RMK A01 T00920005  RH  055%=      5-min Rain = 0
KNOR 051055Z 32010KT 09/01 A2994 RMK A01 T00900005  RH  056%=      5-min Rain = 0
KNOR 051100Z 31010KT 09/01 A2994 RMK A01 T00890005  RH  057%=      5-min Rain = 0
KNOR 051105Z 31010KT 09/01 A2995 RMK A01 T00880007  RH  057%=      5-min Rain = 0
KNOR 051110Z 30011KT 09/01 A2994 RMK A01 T00870007  RH  058%=      5-min Rain = 0
KNOR 051115Z 30010KT 09/01 A2994 RMK A01 T00860007  RH  058%=      5-min Rain = 0
KNOR 051120Z 30011KT 09/01 A2994 RMK A01 T00850008  RH  059%=      5-min Rain = 0
KNOR 051125Z 30010KT 09/01 A2995 RMK A01 T00850008  RH  059%=      5-min Rain = 0
KNOR 051130Z 30010KT 08/01 A2995 RMK A01 T00830009  RH  060%=      5-min Rain = 0
KNOR 051135Z 30011KT 08/01 A2995 RMK A01 T00840010  RH  060%=      5-min Rain = 0
KNOR 051140Z 30010G15KT 08/01 A2995 RMK A01 T00840011  RH  061%=      5-min Rain = 0
KNOR 051145Z 30010KT 08/01 A2995 RMK A01 T00840012  RH  061%=      5-min Rain = 0
KNOR 051150Z 30008KT 08/01 A2995 RMK A01 T00830013  RH  062%=      5-min Rain = 0
KNOR 051155Z 31010G15KT 09/01 A2995 RMK A01 T00850014  RH  062%=      5-min Rain = 0
KNOR 051200Z 31010KT 09/02 A2995 RMK A01 T00860015  RH  062%=      5-min Rain = 0
KNOR 051205Z 31011KT 09/02 A2995 RMK A01 T00850017  RH  063%=      5-min Rain = 0
KNOR 051210Z 31012G17KT 09/02 A2995 RMK A01 T00850018  RH  064%=      5-min Rain = 0
KNOR 051215Z 31012G17KT 09/02 A2995 RMK A01 T00850020  RH  065%=      5-min Rain = 0
KNOR 051220Z 32011KT 09/02 A2995 RMK A01 T00860022  RH  065%=      5-min Rain = 0
KNOR 051225Z 32011KT 08/02 A2996 RMK A01 T00840023  RH  066%=      5-min Rain = 0
KNOR 051230Z 32011KT 08/02 A2996 RMK A01 T00840023  RH  067%=      5-min Rain = 0
KNOR 051235Z 32012G17KT 08/02 A2996 RMK A01 T00820024  RH  068%=      5-min Rain = 0
KNOR 051240Z 32013G18KT 08/03 A2996 RMK A01 T00820025  RH  068%=      5-min Rain = 0
KNOR 051245Z 32012G17KT 08/03 A2997 RMK A01 T00820025  RH  069%=      5-min Rain = 0
KNOR 051250Z 32014KT 08/03 A2997 RMK A01 T00840026  RH  068%=      5-min Rain = 0
KNOR 051255Z 32012KT 08/03 A2997 RMK A01 T00840026  RH  068%=      5-min Rain = 0
KNOR 051300Z 32012KT 08/03 A2997 RMK A01 T00840026  RH  068%=      5-min Rain = 0
KNOR 051305Z 32011KT 08/03 A2998 RMK A01 T00840027  RH  068%=      5-min Rain = 0
KNOR 051310Z 32012G17KT 09/03 A2998 RMK A01 T00860028  RH  068%=      5-min Rain = 0
KNOR 051315Z 32012KT 09/03 A2998 RMK A01 T00860028  RH  068%=      5-min Rain = 0
KNOR 051320Z 33012G18KT 09/03 A2999 RMK A01 T00860028  RH  068%=      5-min Rain = 0
KNOR 051325Z 33012KT 09/03 A30 RMK A01 T00860028  RH  068%=      5-min Rain = 0
KNOR 051330Z 34013G18KT 09/03 A30 RMK A01 T00850029  RH  069%=      5-min Rain = 0
KNOR 051335Z 34014G19KT 09/03 A30 RMK A01 T00860029  RH  069%=      5-min Rain = 0
KNOR 051340Z 34015KT 09/03 A3001 RMK A01 T00870030  RH  068%=      5-min Rain = 0
KNOR 051345Z 34015G20KT 09/03 A3001 RMK A01 T00860029  RH  069%=      5-min Rain = 0
KNOR 051350Z 34014G19KT 09/03 A3001 RMK A01 T00870030  RH  069%=      5-min Rain = 0
KNOR 051355Z 34013G18KT 09/03 A3002 RMK A01 T00870030  RH  068%=      5-min Rain = 0
KNOR 051400Z 34013G18KT 09/03 A3002 RMK A01 T00880030  RH  068%=      5-min Rain = 0
KNOR 051405Z 34013KT 09/03 A3003 RMK A01 T00890030  RH  068%=      5-min Rain = 0
KNOR 051410Z 34012KT 09/03 A3003 RMK A01 T00900031  RH  067%=      5-min Rain = 0
KNOR 051415Z 35015KT 09/03 A3003 RMK A01 T00920031  RH  067%=      5-min Rain = 0
KNOR 051420Z 35013G19KT 10/03 A3004 RMK A01 T00950032  RH  066%=      5-min Rain = 0
KNOR 051425Z 36012G19KT 10/03 A3004 RMK A01 T00980034  RH  065%=      5-min Rain = 0
KNOR 051430Z 00015G21KT 10/04 A3004 RMK A01 T01010035  RH  065%=      5-min Rain = 0
KNOR 051435Z 00017G22KT 10/04 A3005 RMK A01 T01020036  RH  065%=      5-min Rain = 0
KNOR 051440Z 00015G20KT 11/04 A3006 RMK A01 T01050037  RH  064%=      5-min Rain = 0
KNOR 051445Z 36015KT 11/04 A3006 RMK A01 T01080037  RH  063%=      5-min Rain = 0
KNOR 051450Z 36016G22KT 11/04 A3007 RMK A01 T01090036  RH  062%=      5-min Rain = 0
KNOR 051455Z 35014G22KT 11/04 A3007 RMK A01 T01110036  RH  061%=      5-min Rain = 0
KNOR 051500Z 35015G20KT 11/04 A3008 RMK A01 T01120036  RH  061%=      5-min Rain = 0
KNOR 051505Z 34015KT 12/04 A3009 RMK A01 T01150036  RH  060%=      5-min Rain = 0
KNOR 051510Z 35015G21KT 11/04 A3009 RMK A01 T01130037  RH  060%=      5-min Rain = 0
KNOR 051515Z 36013G20KT 12/04 A3009 RMK A01 T01190039  RH  059%=      5-min Rain = 0
KNOR 051520Z 35015G21KT 12/04 A3009 RMK A01 T01170038  RH  060%=      5-min Rain = 0
KNOR 051525Z 00017G22KT 12/04 A3009 RMK A01 T01160040  RH  060%=      5-min Rain = 0
KNOR 051530Z 00016G23KT 12/04 A301 RMK A01 T01190042  RH  060%=      5-min Rain = 0
KNOR 051535Z 00019G27KT 12/05 A301 RMK A01 T01220046  RH  061%=      5-min Rain = 0
KNOR 051540Z 36019G28KT 12/05 A301 RMK A01 T01230047  RH  061%=      5-min Rain = 0
KNOR 051545Z 00022G28KT 12/05 A301 RMK A01 T01210048  RH  063%=      5-min Rain = 0
KNOR 051550Z 00020G27KT 12/05 A3011 RMK A01 T01200050  RH  064%=      5-min Rain = 0
KNOR 051555Z 00021G28KT 12/05 A3011 RMK A01 T01220051  RH  063%=      5-min Rain = 0
KNOR 051600Z 00020G27KT 12/05 A3011 RMK A01 T01230051  RH  063%=      5-min Rain = 0
KNOR 051605Z 36018G24KT 12/05 A3012 RMK A01 T01230051  RH  063%=      5-min Rain = 0
KNOR 051610Z 00019G25KT 12/05 A3012 RMK A01 T01210051  RH  064%=      5-min Rain = 0
KNOR 051615Z 00019G25KT 12/05 A3012 RMK A01 T01170052  RH  066%=      5-min Rain = 0
KNOR 051620Z 36014G19KT 12/06 A3012 RMK A01 T01220055  RH  065%=      5-min Rain = 0
KNOR 051625Z 36017G22KT 13/05 A3012 RMK A01 T01280054  RH  062%=      5-min Rain = 0
KNOR 051630Z 35016G21KT 13/05 A3012 RMK A01 T01290053  RH  061%=      5-min Rain = 0
KNOR 051635Z 35014G22KT 12/05 A3012 RMK A01 T01220052  RH  064%=      5-min Rain = 0
KNOR 051640Z 35014G19KT 12/05 A3013 RMK A01 T01230053  RH  064%=      5-min Rain = 0
KNOR 051645Z 35015G20KT 12/05 A3013 RMK A01 T01200053  RH  065%=      5-min Rain = 0
KNOR 051650Z 34016G21KT 11/05 A3014 RMK A01 T01140053  RH  067%=      5-min Rain = 0
KNOR 051655Z 34013G18KT 11/05 A3014 RMK A01 T01130053  RH  068%=      5-min Rain = 0
KNOR 051700Z 35013KT 11/05 A3014 RMK A01 T01110053  RH  069%=      5-min Rain = 0
KNOR 051705Z 35014G19KT 11/05 A3014 RMK A01 T01110054  RH  069%=      5-min Rain = 0
KNOR 051710Z 34010G15KT 11/06 A3015 RMK A01 T01130055  RH  069%=      5-min Rain = 0
KNOR 051715Z 34011G16KT 11/06 A3015 RMK A01 T01140055  RH  069%=      5-min Rain = 0
KNOR 051720Z 35015KT 12/05 A3015 RMK A01 T01150054  RH  068%=      5-min Rain = 0
KNOR 051725Z 36014G19KT 12/05 A3015 RMK A01 T01150053  RH  067%=      5-min Rain = 0
KNOR 051730Z 36014G19KT 12/05 A3015 RMK A01 T01150053  RH  067%=      5-min Rain = 0
KNOR 051735Z 01018G26KT 12/05 A3015 RMK A01 T01150054  RH  068%=      5-min Rain = 0
KNOR 051740Z 02020G26KT 10/07 A3016 RMK A01 T00980066  RH  082%=      5-min Rain = 0
KNOR 051745Z 02018G25KT 09/07 A3016 RMK A01 T00930072  RH  089%=      5-min Rain = 0
KNOR 051750Z 02015G23KT 10/08 A3016 RMK A01 T00980076  RH  088%=      5-min Rain = 0
KNOR 051755Z 02014G19KT 11/08 A3016 RMK A01 T01080077  RH  083%=      5-min Rain = 0
KNOR 051800Z 02016G21KT 11/07 A3016 RMK A01 T01110070  RH  078%=      5-min Rain = 0
KNOR 051805Z 01019G28KT 11/06 A3017 RMK A01 T01140061  RH  071%=      5-min Rain = 0
KNOR 051810Z 02020KT 11/05 A3017 RMK A01 T01110054  RH  070%=      5-min Rain = 0
KNOR 051815Z 01019G24KT 11/05 A3017 RMK A01 T01130053  RH  068%=      5-min Rain = 0
KNOR 051820Z 02018G24KT 12/05 A3017 RMK A01 T01170051  RH  066%=      5-min Rain = 0
KNOR 051825Z 02018G23KT 12/05 A3017 RMK A01 T01230053  RH  063%=      5-min Rain = 0
KNOR 051830Z 03017G24KT 13/05 A3017 RMK A01 T01260049  RH  061%=      5-min Rain = 0
KNOR 051835Z 01020G28KT 12/04 A3017 RMK A01 T01180043  RH  061%=      5-min Rain = 0
KNOR 051840Z 01018G24KT 12/05 A3017 RMK A01 T01180046  RH  062%=      5-min Rain = 0
KNOR 051845Z 01017G22KT 12/05 A3017 RMK A01 T01220046  RH  061%=      5-min Rain = 0
KNOR 051850Z 01018G24KT 12/04 A3017 RMK A01 T01220044  RH  060%=      5-min Rain = 0
KNOR 051855Z 01018G25KT 12/04 A3017 RMK A01 T01230042  RH  059%=      5-min Rain = 0
KNOR 051900Z 01020G26KT 12/04 A3017 RMK A01 T01220041  RH  059%=      5-min Rain = 0
KNOR 051905Z 01020G26KT 12/04 A3017 RMK A01 T01210040  RH  058%=      5-min Rain = 0
KNOR 051910Z 01017G24KT 12/04 A3018 RMK A01 T01240040  RH  057%=      5-min Rain = 0
KNOR 051915Z 01017G25KT 13/04 A3018 RMK A01 T01300040  RH  055%=      5-min Rain = 0
KNOR 051920Z 02021G29KT 12/04 A3018 RMK A01 T01210037  RH  057%=      5-min Rain = 0
KNOR 051925Z 02020G30KT 12/04 A3018 RMK A01 T01210040  RH  059%=      5-min Rain = 0
KNOR 051930Z 01019G27KT 13/04 A3018 RMK A01 T01250040  RH  057%=      5-min Rain = 0
KNOR 051935Z 01021G26KT 12/04 A3018 RMK A01 T01220040  RH  058%=      5-min Rain = 0
KNOR 051940Z 02022G31KT 12/04 A3018 RMK A01 T01220038  RH  057%=      5-min Rain = 0
KNOR 051945Z 01020G27KT 12/04 A3018 RMK A01 T01190038  RH  058%=      5-min Rain = 0
KNOR 051950Z 01018G30KT 12/04 A3018 RMK A01 T01220040  RH  058%=      5-min Rain = 0
KNOR 051955Z 01021G27KT 12/04 A3018 RMK A01 T01220040  RH  058%=      5-min Rain = 0
KNOR 052000Z 01021G31KT 12/04 A3018 RMK A01 T01180040  RH  060%=      5-min Rain = 0
KNOR 052005Z 00021G28KT 12/04 A3018 RMK A01 T01170043  RH  062%=      5-min Rain = 0
KNOR 052010Z 00023G28KT 12/04 A3018 RMK A01 T01160044  RH  063%=      5-min Rain = 0
KNOR 052015Z 00018G24KT 11/05 A3018 RMK A01 T01140046  RH  064%=      5-min Rain = 0
KNOR 052020Z 36017G23KT 12/05 A3018 RMK A01 T01160046  RH  063%=      5-min Rain = 0
KNOR 052025Z 36019G25KT 12/05 A3018 RMK A01 T01150045  RH  063%=      5-min Rain = 0
KNOR 052030Z 36015G21KT 12/05 A3018 RMK A01 T01170045  RH  062%=      5-min Rain = 0
KNOR 052035Z 00018G23KT 12/04 A3019 RMK A01 T01180042  RH  061%=      5-min Rain = 0
KNOR 052040Z 36016G22KT 12/04 A3019 RMK A01 T01200040  RH  059%=      5-min Rain = 0
KNOR 052045Z 36019G24KT 12/04 A3019 RMK A01 T01210038  RH  058%=      5-min Rain = 0
KNOR 052050Z 00017G24KT 12/04 A3019 RMK A01 T01240038  RH  057%=      5-min Rain = 0
KNOR 052055Z 01017G28KT 12/04 A3019 RMK A01 T01230037  RH  057%=      5-min Rain = 0
KNOR 052100Z 00018G24KT 12/04 A3019 RMK A01 T01230038  RH  057%=      5-min Rain = 0
KNOR 052105Z 01016G25KT 13/04 A3019 RMK A01 T01310040  RH  055%=      5-min Rain = 0
KNOR 052110Z 01018G24KT 13/04 A3019 RMK A01 T01300040  RH  055%=      5-min Rain = 0
KNOR 052115Z 01017G24KT 13/04 A3019 RMK A01 T01310040  RH  055%=      5-min Rain = 0
KNOR 052120Z 01017G23KT 13/04 A3019 RMK A01 T01300038  RH  055%=      5-min Rain = 0
KNOR 052125Z 02018G24KT 13/04 A302 RMK A01 T01290038  RH  055%=      5-min Rain = 0
KNOR 052130Z 02017G22KT 13/04 A302 RMK A01 T01270038  RH  056%=      5-min Rain = 0
KNOR 052135Z 01017G22KT 13/04 A302 RMK A01 T01280039  RH  055%=      5-min Rain = 0
KNOR 052140Z 02016KT 13/04 A302 RMK A01 T01270038  RH  056%=      5-min Rain = 0
KNOR 052145Z 01015KT 13/04 A3021 RMK A01 T01260038  RH  056%=      5-min Rain = 0
KNOR 052150Z 01015G21KT 13/04 A3021 RMK A01 T01270039  RH  056%=      5-min Rain = 0
KNOR 052155Z 01017G22KT 13/04 A3021 RMK A01 T01280039  RH  056%=      5-min Rain = 0
KNOR 052200Z 02015G21KT 13/04 A3021 RMK A01 T01270039  RH  056%=      5-min Rain = 0
KNOR 052205Z 02016G22KT 13/04 A3021 RMK A01 T01290038  RH  055%=      5-min Rain = 0
KNOR 052210Z 02015G20KT 13/04 A3021 RMK A01 T01270038  RH  056%=      5-min Rain = 0
KNOR 052215Z 01014G20KT 13/04 A3021 RMK A01 T01270038  RH  056%=      5-min Rain = 0
KNOR 052220Z 01015KT 13/04 A3021 RMK A01 T01270038  RH  056%=      5-min Rain = 0
KNOR 052225Z 02014G19KT 13/04 A3021 RMK A01 T01270039  RH  056%=      5-min Rain = 0
KNOR 052230Z 01014G19KT 13/04 A3022 RMK A01 T01260038  RH  056%=      5-min Rain = 0
KNOR 052235Z 01015KT 12/04 A3022 RMK A01 T01240038  RH  057%=      5-min Rain = 0
KNOR 052240Z 02014KT 12/04 A3022 RMK A01 T01240038  RH  057%=      5-min Rain = 0
KNOR 052245Z 01013G18KT 12/04 A3022 RMK A01 T01240039  RH  057%=      5-min Rain = 0
KNOR 052250Z 01012G17KT 13/04 A3022 RMK A01 T01250039  RH  057%=      5-min Rain = 0
KNOR 052255Z 01012KT 13/04 A3022 RMK A01 T01270039  RH  056%=      5-min Rain = 0
KNOR 052300Z 02014G19KT 13/04 A3022 RMK A01 T01260039  RH  057%=      5-min Rain = 0
KNOR 052305Z 02012KT 13/04 A3022 RMK A01 T01250039  RH  057%=      5-min Rain = 0
KNOR 052310Z 01010KT 13/04 A3022 RMK A01 T01250040  RH  057%=      5-min Rain = 0
KNOR 052315Z 02010G15KT 13/04 A3022 RMK A01 T01260040  RH  057%=      5-min Rain = 0
KNOR 052320Z 02013KT 13/04 A3022 RMK A01 T01270041  RH  057%=      5-min Rain = 0
KNOR 052325Z 02013G20KT 13/04 A3022 RMK A01 T01320042  RH  055%=      5-min Rain = 0
KNOR 052330Z 02012G18KT 13/04 A3023 RMK A01 T01320042  RH  055%=      5-min Rain = 0
KNOR 052335Z 02012G17KT 13/04 A3023 RMK A01 T01300040  RH  056%=      5-min Rain = 0
KNOR 052340Z 02014G19KT 13/04 A3023 RMK A01 T01330041  RH  055%=      5-min Rain = 0
KNOR 052345Z 02013G19KT 13/04 A3023 RMK A01 T01330039  RH  054%=      5-min Rain = 0
KNOR 052350Z 02012G18KT 13/04 A3023 RMK A01 T01320036  RH  053%=      5-min Rain = 0
KNOR 052355Z 03012G18KT 13/04 A3023 RMK A01 T01310036  RH  053%=      5-min Rain = 0
KNOR 060000Z 04012KT 13/04 A3023 RMK A01 T01280036  RH  054%=      5-min Rain = 0
KNOR 060005Z 04011KT 13/04 A3023 RMK A01 T01270036  RH  055%=      5-min Rain = 0
KNOR 060010Z 04012G17KT 13/04 A3024 RMK A01 T01250035  RH  055%=      5-min Rain = 0
KNOR 060015Z 03011KT 12/04 A3024 RMK A01 T01240035  RH  056%=      5-min Rain = 0
KNOR 060020Z 04009KT 12/04 A3024 RMK A01 T01220035  RH  057%=      5-min Rain = 0
KNOR 060025Z 04011G16KT 12/04 A3024 RMK A01 T01200036  RH  057%=      5-min Rain = 0
KNOR 060030Z 04012KT 12/04 A3025 RMK A01 T01190036  RH  058%=      5-min Rain = 0
KNOR 060035Z 04011KT 12/04 A3025 RMK A01 T01170036  RH  059%=      5-min Rain = 0
KNOR 060040Z 04008KT 11/04 A3025 RMK A01 T01130036  RH  060%=      5-min Rain = 0
KNOR 060045Z 04009KT 11/04 A3025 RMK A01 T01110037  RH  061%=      5-min Rain = 0
KNOR 060050Z 03007KT 11/04 A3026 RMK A01 T01100037  RH  062%=      5-min Rain = 0
KNOR 060055Z 03007KT 11/04 A3026 RMK A01 T01060037  RH  063%=      5-min Rain = 0
KNOR 060100Z 04006KT 10/04 A3026 RMK A01 T01040036  RH  064%=      5-min Rain = 0
KNOR 060105Z 04005KT 10/04 A3026 RMK A01 T01000036  RH  065%=      5-min Rain = 0
KNOR 060110Z 05005KT 10/04 A3026 RMK A01 T00970035  RH  067%=      5-min Rain = 0
KNOR 060115Z 05005KT 09/04 A3027 RMK A01 T00940035  RH  068%=      5-min Rain = 0
KNOR 060120Z 04005KT 09/04 A3027 RMK A01 T00930035  RH  068%=      5-min Rain = 0
KNOR 060125Z 04005KT 09/04 A3027 RMK A01 T00920035  RH  069%=      5-min Rain = 0
KNOR 060130Z 04005KT 09/04 A3027 RMK A01 T00900035  RH  070%=      5-min Rain = 0
KNOR 060135Z 05005KT 09/04 A3027 RMK A01 T00900036  RH  070%=      5-min Rain = 0
KNOR 060140Z 04006KT 09/04 A3027 RMK A01 T00880035  RH  071%=      5-min Rain = 0
KNOR 060145Z 04006KT 09/04 A3027 RMK A01 T00870036  RH  071%=      5-min Rain = 0
KNOR 060150Z 04005KT 09/04 A3027 RMK A01 T00870036  RH  072%=      5-min Rain = 0
KNOR 060155Z 04005KT 09/04 A3028 RMK A01 T00870036  RH  072%=      5-min Rain = 0
KNOR 060200Z 05005KT 09/04 A3028 RMK A01 T00860036  RH  072%=      5-min Rain = 0
KNOR 060205Z 05006KT 09/04 A3028 RMK A01 T00850036  RH  073%=      5-min Rain = 0
KNOR 060210Z 05006KT 09/04 A3028 RMK A01 T00850037  RH  073%=      5-min Rain = 0
KNOR 060215Z 05005KT 09/04 A3028 RMK A01 T00850037  RH  073%=      5-min Rain = 0
KNOR 060220Z 04005KT 08/04 A3028 RMK A01 T00840037  RH  073%=      5-min Rain = 0
KNOR 060225Z 04005KT 08/04 A3028 RMK A01 T00820037  RH  074%=      5-min Rain = 0
KNOR 060230Z 04006KT 08/04 A3028 RMK A01 T00820037  RH  075%=      5-min Rain = 0
KNOR 060235Z 04006KT 08/04 A3029 RMK A01 T00800036  RH  075%=      5-min Rain = 0
KNOR 060240Z 03005KT 08/04 A3029 RMK A01 T00770035  RH  076%=      5-min Rain = 0
KNOR 060245Z 02005KT 08/04 A3029 RMK A01 T00750035  RH  077%=      5-min Rain = 0
KNOR 060250Z 02005KT 08/04 A303 RMK A01 T00750035  RH  077%=      5-min Rain = 0
KNOR 060255Z 02005KT 08/04 A303 RMK A01 T00750036  RH  078%=      5-min Rain = 0
KNOR 060300Z 02004KT 08/04 A303 RMK A01 T00760037  RH  078%=      5-min Rain = 0
KNOR 060305Z 02004KT 08/04 A303 RMK A01 T00760037  RH  078%=      5-min Rain = 0
KNOR 060310Z 02004KT 08/04 A303 RMK A01 T00760038  RH  078%=      5-min Rain = 0
KNOR 060315Z 02004KT 08/04 A303 RMK A01 T00780038  RH  078%=      5-min Rain = 0
KNOR 060320Z 01004KT 08/04 A303 RMK A01 T00750037  RH  078%=      5-min Rain = 0
KNOR 060325Z 01004KT 07/04 A3031 RMK A01 T00720037  RH  080%=      5-min Rain = 0
KNOR 060330Z 01003KT 07/04 A3031 RMK A01 T00740039  RH  080%=      5-min Rain = 0
KNOR 060335Z 02003KT 08/04 A3031 RMK A01 T00760041  RH  080%=      5-min Rain = 0
KNOR 060340Z 02004KT 08/04 A3031 RMK A01 T00770040  RH  079%=      5-min Rain = 0
KNOR 060345Z 03005KT 08/04 A3031 RMK A01 T00760039  RH  079%=      5-min Rain = 0
KNOR 060350Z 03005KT 07/04 A3031 RMK A01 T00740038  RH  080%=      5-min Rain = 0
KNOR 060355Z 02005KT 07/04 A3031 RMK A01 T00710037  RH  081%=      5-min Rain = 0
KNOR 060400Z 00005KT 07/04 A3031 RMK A01 T00670035  RH  082%=      5-min Rain = 0
KNOR 060405Z 35005KT 07/04 A3032 RMK A01 T00650036  RH  083%=      5-min Rain = 0
KNOR 060410Z 35005KT 06/04 A3032 RMK A01 T00640035  RH  084%=      5-min Rain = 0
KNOR 060415Z 01004KT 06/04 A3032 RMK A01 T00620035  RH  084%=      5-min Rain = 0
KNOR 060420Z 02005KT 06/04 A3032 RMK A01 T00640037  RH  085%=      5-min Rain = 0
KNOR 060425Z 03005KT 07/04 A3033 RMK A01 T00670038  RH  083%=      5-min Rain = 0
KNOR 060430Z 02004KT 07/04 A3033 RMK A01 T00670038  RH  083%=      5-min Rain = 0
KNOR 060435Z 03004KT 07/04 A3033 RMK A01 T00680039  RH  083%=      5-min Rain = 0
KNOR 060440Z 04005KT 07/04 A3033 RMK A01 T00680039  RH  083%=      5-min Rain = 0
KNOR 060445Z 04005KT 07/04 A3033 RMK A01 T00660038  RH  084%=      5-min Rain = 0
KNOR 060450Z 05005KT 06/04 A3033 RMK A01 T00640037  RH  085%=      5-min Rain = 0
KNOR 060455Z 05005KT 06/04 A3033 RMK A01 T00630038  RH  085%=      5-min Rain = 0
KNOR 060500Z 06005KT 06/04 A3033 RMK A01 T00640039  RH  086%=      5-min Rain = 0
KNOR 060505Z 07005KT 07/04 A3033 RMK A01 T00650040  RH  086%=      5-min Rain = 0
KNOR 060510Z 07005KT 07/04 A3032 RMK A01 T00660040  RH  085%=      5-min Rain = 0
KNOR 060515Z 07006KT 07/04 A3032 RMK A01 T00650040  RH  086%=      5-min Rain = 0
KNOR 060520Z 06006KT 07/04 A3032 RMK A01 T00660041  RH  085%=      5-min Rain = 0
KNOR 060525Z 06005KT 07/04 A3032 RMK A01 T00670042  RH  085%=      5-min Rain = 0
KNOR 060530Z 06004KT 07/04 A3032 RMK A01 T00680042  RH  085%=      5-min Rain = 0
KNOR 060535Z 05003KT 07/04 A3032 RMK A01 T00670042  RH  086%=      5-min Rain = 0
KNOR 060540Z 03002KT 07/04 A3032 RMK A01 T00660042  RH  086%=      5-min Rain = 0
KNOR 060545Z 29003KT 05/02 A3032 RMK A01 T00470024  RH  086%=      5-min Rain = 0
KNOR 060550Z 27003KT 04/02 A3032 RMK A01 T00380022  RH  090%=      5-min Rain = 0
KNOR 060555Z 26005KT 03/01 A3033 RMK A01 T00270012  RH  091%=      5-min Rain = 0

Page generated in 0.0206 seconds.